Silva Campos, Brazil
Current Conditions -  °F | °C
As of 10:00 PM on Tuesday 21 Oct 2014 (Local Time) from SBLS Reporting Station
Clear Clear  
Wind Chill: 72°   Ceiling: Unl
Heat Index: 72°   Visibility: 6mi
Dew Point: 63°   Wind: 16mph
Humidity: 73%   Direction: 140°SE
Pressure: 30.12"   Gusts: NA
Location:  19.1°S, 44.93°W
Report Text: SBLS 220000Z 14014KT CAVOK 22/17 Q1020
Loading
Personal Weather Stations






























Interactive Weather Map
Tropical Storm Tracking
New forecast layout! Learn more

10-Day Weather Forecast

Advertisements
Track Severe Weather on mobile